sensor_id;sensor_type;location;lat;lon;timestamp;pressure;altitude;pressure_sealevel;temperature
68743;BMP180;55725;42.758;26.702;2022-12-17T00:01:06;99187.00;;;13.10
68743;BMP180;55725;42.758;26.702;2022-12-17T00:03:22;99189.00;;;13.00
68743;BMP180;55725;42.758;26.702;2022-12-17T00:05:20;99203.00;;;13.10
68743;BMP180;55725;42.758;26.702;2022-12-17T00:07:19;99180.00;;;13.20
68743;BMP180;55725;42.758;26.702;2022-12-17T00:09:18;99193.00;;;13.00
68743;BMP180;55725;42.758;26.702;2022-12-17T00:11:17;99189.00;;;12.90
68743;BMP180;55725;42.758;26.702;2022-12-17T00:13:17;99197.00;;;12.80
68743;BMP180;55725;42.758;26.702;2022-12-17T00:15:16;99200.00;;;12.80
68743;BMP180;55725;42.758;26.702;2022-12-17T00:17:15;99205.00;;;12.70
68743;BMP180;55725;42.758;26.702;2022-12-17T00:19:14;99196.00;;;12.60
68743;BMP180;55725;42.758;26.702;2022-12-17T00:21:13;99198.00;;;12.10
68743;BMP180;55725;42.758;26.702;2022-12-17T00:23:12;99205.00;;;11.70
68743;BMP180;55725;42.758;26.702;2022-12-17T00:25:11;99202.00;;;11.60
68743;BMP180;55725;42.758;26.702;2022-12-17T00:27:10;99201.00;;;11.50
68743;BMP180;55725;42.758;26.702;2022-12-17T00:29:09;99203.00;;;11.40
68743;BMP180;55725;42.758;26.702;2022-12-17T00:31:08;99204.00;;;11.40
68743;BMP180;55725;42.758;26.702;2022-12-17T00:33:07;99201.00;;;12.30
68743;BMP180;55725;42.758;26.702;2022-12-17T00:35:06;99207.00;;;12.30
68743;BMP180;55725;42.758;26.702;2022-12-17T00:37:04;99209.00;;;12.10
68743;BMP180;55725;42.758;26.702;2022-12-17T00:39:04;99218.00;;;12.20
68743;BMP180;55725;42.758;26.702;2022-12-17T00:41:03;99205.00;;;11.90
68743;BMP180;55725;42.758;26.702;2022-12-17T00:43:03;99210.00;;;11.80
68743;BMP180;55725;42.758;26.702;2022-12-17T00:45:02;99204.00;;;12.00
68743;BMP180;55725;42.758;26.702;2022-12-17T00:47:01;99211.00;;;11.80
68743;BMP180;55725;42.758;26.702;2022-12-17T00:49:00;99202.00;;;11.70
68743;BMP180;55725;42.758;26.702;2022-12-17T00:50:59;99209.00;;;11.60
68743;BMP180;55725;42.758;26.702;2022-12-17T00:52:58;99206.00;;;11.70
68743;BMP180;55725;42.758;26.702;2022-12-17T00:54:57;99204.00;;;11.30
68743;BMP180;55725;42.758;26.702;2022-12-17T00:56:56;99199.00;;;10.80
68743;BMP180;55725;42.758;26.702;2022-12-17T00:58:55;99196.00;;;10.50
68743;BMP180;55725;42.758;26.702;2022-12-17T01:00:57;99200.00;;;10.40
68743;BMP180;55725;42.758;26.702;2022-12-17T01:03:06;99201.00;;;10.30
68743;BMP180;55725;42.758;26.702;2022-12-17T01:05:07;99201.00;;;10.50
68743;BMP180;55725;42.758;26.702;2022-12-17T01:07:06;99215.00;;;11.60
68743;BMP180;55725;42.758;26.702;2022-12-17T01:09:04;99202.00;;;11.70
68743;BMP180;55725;42.758;26.702;2022-12-17T01:11:05;99203.00;;;11.70
68743;BMP180;55725;42.758;26.702;2022-12-17T01:13:04;99204.00;;;11.80
68743;BMP180;55725;42.758;26.702;2022-12-17T01:15:03;99195.00;;;11.70
68743;BMP180;55725;42.758;26.702;2022-12-17T01:17:02;99200.00;;;11.90
68743;BMP180;55725;42.758;26.702;2022-12-17T01:19:01;99204.00;;;12.20
68743;BMP180;55725;42.758;26.702;2022-12-17T01:21:00;99210.00;;;12.30
68743;BMP180;55725;42.758;26.702;2022-12-17T01:22:58;99188.00;;;12.30
68743;BMP180;55725;42.758;26.702;2022-12-17T01:24:58;99204.00;;;12.00
68743;BMP180;55725;42.758;26.702;2022-12-17T01:26:56;99192.00;;;12.40
68743;BMP180;55725;42.758;26.702;2022-12-17T01:28:56;99198.00;;;12.20
68743;BMP180;55725;42.758;26.702;2022-12-17T01:30:55;99194.00;;;12.60
68743;BMP180;55725;42.758;26.702;2022-12-17T01:33:04;99187.00;;;12.60
68743;BMP180;55725;42.758;26.702;2022-12-17T01:35:04;99190.00;;;13.10
68743;BMP180;55725;42.758;26.702;2022-12-17T01:37:03;99180.00;;;12.60
68743;BMP180;55725;42.758;26.702;2022-12-17T01:39:02;99183.00;;;12.60
68743;BMP180;55725;42.758;26.702;2022-12-17T01:41:02;99189.00;;;12.70
68743;BMP180;55725;42.758;26.702;2022-12-17T01:43:01;99183.00;;;12.70
68743;BMP180;55725;42.758;26.702;2022-12-17T01:45:00;99172.00;;;12.80
68743;BMP180;55725;42.758;26.702;2022-12-17T01:46:59;99166.00;;;13.00
68743;BMP180;55725;42.758;26.702;2022-12-17T01:48:58;99170.00;;;12.40
68743;BMP180;55725;42.758;26.702;2022-12-17T01:50:58;99179.00;;;11.90
68743;BMP180;55725;42.758;26.702;2022-12-17T01:52:58;99182.00;;;11.70
68743;BMP180;55725;42.758;26.702;2022-12-17T01:54:57;99177.00;;;11.30
68743;BMP180;55725;42.758;26.702;2022-12-17T01:56:56;99175.00;;;11.30
68743;BMP180;55725;42.758;26.702;2022-12-17T01:58:56;99184.00;;;11.40
68743;BMP180;55725;42.758;26.702;2022-12-17T02:00:55;99180.00;;;11.20
68743;BMP180;55725;42.758;26.702;2022-12-17T02:02:54;99169.00;;;11.20
68743;BMP180;55725;42.758;26.702;2022-12-17T02:04:53;99180.00;;;11.70
68743;BMP180;55725;42.758;26.702;2022-12-17T02:06:56;99184.00;;;12.40
68743;BMP180;55725;42.758;26.702;2022-12-17T02:13:40;99172.00;;;11.90
68743;BMP180;55725;42.758;26.702;2022-12-17T02:15:50;99172.00;;;12.00
68743;BMP180;55725;42.758;26.702;2022-12-17T02:18:10;99171.00;;;11.90
68743;BMP180;55725;42.758;26.702;2022-12-17T02:20:21;99159.00;;;11.50
68743;BMP180;55725;42.758;26.702;2022-12-17T02:24:43;99159.00;;;11.90
68743;BMP180;55725;42.758;26.702;2022-12-17T02:26:43;99171.00;;;11.90
68743;BMP180;55725;42.758;26.702;2022-12-17T02:28:44;99160.00;;;11.60
68743;BMP180;55725;42.758;26.702;2022-12-17T02:30:44;99161.00;;;11.80
68743;BMP180;55725;42.758;26.702;2022-12-17T02:32:43;99157.00;;;11.70
68743;BMP180;55725;42.758;26.702;2022-12-17T02:34:46;99162.00;;;11.60
68743;BMP180;55725;42.758;26.702;2022-12-17T02:36:46;99163.00;;;11.50
68743;BMP180;55725;42.758;26.702;2022-12-17T02:38:45;99155.00;;;11.30
68743;BMP180;55725;42.758;26.702;2022-12-17T02:40:44;99159.00;;;11.70
68743;BMP180;55725;42.758;26.702;2022-12-17T02:42:44;99158.00;;;11.50
68743;BMP180;55725;42.758;26.702;2022-12-17T02:44:44;99175.00;;;11.40
68743;BMP180;55725;42.758;26.702;2022-12-17T02:46:43;99171.00;;;11.40
68743;BMP180;55725;42.758;26.702;2022-12-17T02:48:43;99171.00;;;11.60
68743;BMP180;55725;42.758;26.702;2022-12-17T02:50:52;99182.00;;;11.60
68743;BMP180;55725;42.758;26.702;2022-12-17T02:52:51;99185.00;;;11.50
68743;BMP180;55725;42.758;26.702;2022-12-17T02:54:50;99179.00;;;11.30
68743;BMP180;55725;42.758;26.702;2022-12-17T02:56:50;99186.00;;;11.50
68743;BMP180;55725;42.758;26.702;2022-12-17T02:58:48;99185.00;;;11.60
68743;BMP180;55725;42.758;26.702;2022-12-17T03:00:47;99173.00;;;11.40
68743;BMP180;55725;42.758;26.702;2022-12-17T03:02:46;99179.00;;;11.10
68743;BMP180;55725;42.758;26.702;2022-12-17T03:04:45;99185.00;;;11.00
68743;BMP180;55725;42.758;26.702;2022-12-17T03:06:44;99185.00;;;10.90
68743;BMP180;55725;42.758;26.702;2022-12-17T03:08:43;99185.00;;;10.90
68743;BMP180;55725;42.758;26.702;2022-12-17T03:10:42;99191.00;;;11.00
68743;BMP180;55725;42.758;26.702;2022-12-17T03:12:41;99194.00;;;10.80
68743;BMP180;55725;42.758;26.702;2022-12-17T03:14:40;99184.00;;;10.70
68743;BMP180;55725;42.758;26.702;2022-12-17T03:16:39;99189.00;;;10.60
68743;BMP180;55725;42.758;26.702;2022-12-17T03:18:38;99195.00;;;10.40
68743;BMP180;55725;42.758;26.702;2022-12-17T03:20:37;99192.00;;;10.60
68743;BMP180;55725;42.758;26.702;2022-12-17T03:22:36;99185.00;;;10.80
68743;BMP180;55725;42.758;26.702;2022-12-17T03:24:35;99192.00;;;10.60
68743;BMP180;55725;42.758;26.702;2022-12-17T03:26:34;99192.00;;;10.80
68743;BMP180;55725;42.758;26.702;2022-12-17T03:28:33;99184.00;;;11.00
68743;BMP180;55725;42.758;26.702;2022-12-17T03:30:31;99190.00;;;11.00
68743;BMP180;55725;42.758;26.702;2022-12-17T03:32:30;99191.00;;;10.80
68743;BMP180;55725;42.758;26.702;2022-12-17T03:34:29;99196.00;;;10.60
68743;BMP180;55725;42.758;26.702;2022-12-17T03:36:29;99193.00;;;10.80
68743;BMP180;55725;42.758;26.702;2022-12-17T03:38:27;99201.00;;;11.20
68743;BMP180;55725;42.758;26.702;2022-12-17T03:40:26;99195.00;;;11.00
68743;BMP180;55725;42.758;26.702;2022-12-17T03:42:25;99193.00;;;10.80
68743;BMP180;55725;42.758;26.702;2022-12-17T03:44:24;99191.00;;;10.60
68743;BMP180;55725;42.758;26.702;2022-12-17T03:46:23;99198.00;;;11.00
68743;BMP180;55725;42.758;26.702;2022-12-17T03:48:22;99192.00;;;11.50
68743;BMP180;55725;42.758;26.702;2022-12-17T03:50:35;99197.00;;;11.60
68743;BMP180;55725;42.758;26.702;2022-12-17T03:52:34;99194.00;;;11.50
68743;BMP180;55725;42.758;26.702;2022-12-17T03:54:32;99205.00;;;11.80
68743;BMP180;55725;42.758;26.702;2022-12-17T03:56:31;99199.00;;;11.30
68743;BMP180;55725;42.758;26.702;2022-12-17T03:58:30;99205.00;;;11.30
68743;BMP180;55725;42.758;26.702;2022-12-17T04:00:29;99196.00;;;11.30
68743;BMP180;55725;42.758;26.702;2022-12-17T04:02:28;99202.00;;;11.30
68743;BMP180;55725;42.758;26.702;2022-12-17T04:04:27;99202.00;;;11.20
68743;BMP180;55725;42.758;26.702;2022-12-17T04:06:26;99222.00;;;11.20
68743;BMP180;55725;42.758;26.702;2022-12-17T04:08:25;99206.00;;;11.20
68743;BMP180;55725;42.758;26.702;2022-12-17T04:10:24;99208.00;;;11.20
68743;BMP180;55725;42.758;26.702;2022-12-17T04:12:23;99199.00;;;11.10
68743;BMP180;55725;42.758;26.702;2022-12-17T04:14:22;99223.00;;;11.10
68743;BMP180;55725;42.758;26.702;2022-12-17T04:16:21;99211.00;;;11.10
68743;BMP180;55725;42.758;26.702;2022-12-17T04:18:20;99211.00;;;11.10
68743;BMP180;55725;42.758;26.702;2022-12-17T04:20:19;99217.00;;;11.20
68743;BMP180;55725;42.758;26.702;2022-12-17T04:22:18;99216.00;;;11.10
68743;BMP180;55725;42.758;26.702;2022-12-17T04:24:17;99205.00;;;11.20
68743;BMP180;55725;42.758;26.702;2022-12-17T04:26:16;99210.00;;;11.10
68743;BMP180;55725;42.758;26.702;2022-12-17T04:28:15;99215.00;;;11.10
68743;BMP180;55725;42.758;26.702;2022-12-17T04:30:14;99216.00;;;11.00
68743;BMP180;55725;42.758;26.702;2022-12-17T04:32:13;99209.00;;;11.20
68743;BMP180;55725;42.758;26.702;2022-12-17T04:34:12;99207.00;;;11.20
68743;BMP180;55725;42.758;26.702;2022-12-17T04:36:11;99206.00;;;11.10
68743;BMP180;55725;42.758;26.702;2022-12-17T04:38:10;99201.00;;;11.00
68743;BMP180;55725;42.758;26.702;2022-12-17T04:40:09;99206.00;;;11.00
68743;BMP180;55725;42.758;26.702;2022-12-17T04:42:09;99202.00;;;10.90
68743;BMP180;55725;42.758;26.702;2022-12-17T04:44:08;99206.00;;;10.90
68743;BMP180;55725;42.758;26.702;2022-12-17T04:46:06;99207.00;;;10.90
68743;BMP180;55725;42.758;26.702;2022-12-17T04:48:06;99198.00;;;10.90
68743;BMP180;55725;42.758;26.702;2022-12-17T04:50:05;99195.00;;;10.80
68743;BMP180;55725;42.758;26.702;2022-12-17T04:52:04;99202.00;;;10.80
68743;BMP180;55725;42.758;26.702;2022-12-17T04:54:03;99193.00;;;10.70
68743;BMP180;55725;42.758;26.702;2022-12-17T04:56:02;99196.00;;;10.70
68743;BMP180;55725;42.758;26.702;2022-12-17T04:58:02;99201.00;;;10.70
68743;BMP180;55725;42.758;26.702;2022-12-17T05:00:01;99192.00;;;10.50
68743;BMP180;55725;42.758;26.702;2022-12-17T05:01:59;99189.00;;;10.40
68743;BMP180;55725;42.758;26.702;2022-12-17T05:03:58;99192.00;;;10.30
68743;BMP180;55725;42.758;26.702;2022-12-17T05:05:57;99190.00;;;10.40
68743;BMP180;55725;42.758;26.702;2022-12-17T05:07:56;99194.00;;;10.40
68743;BMP180;55725;42.758;26.702;2022-12-17T05:09:55;99186.00;;;10.40
68743;BMP180;55725;42.758;26.702;2022-12-17T05:11:54;99187.00;;;10.60
68743;BMP180;55725;42.758;26.702;2022-12-17T05:13:53;99187.00;;;10.40
68743;BMP180;55725;42.758;26.702;2022-12-17T05:15:55;99190.00;;;10.50
68743;BMP180;55725;42.758;26.702;2022-12-17T05:18:02;99182.00;;;10.60
68743;BMP180;55725;42.758;26.702;2022-12-17T05:20:01;99189.00;;;10.30
68743;BMP180;55725;42.758;26.702;2022-12-17T05:21:59;99184.00;;;10.30
68743;BMP180;55725;42.758;26.702;2022-12-17T05:23:58;99192.00;;;10.30
68743;BMP180;55725;42.758;26.702;2022-12-17T05:26:04;99189.00;;;10.50
68743;BMP180;55725;42.758;26.702;2022-12-17T05:28:03;99188.00;;;10.60
68743;BMP180;55725;42.758;26.702;2022-12-17T05:30:02;99190.00;;;10.70
68743;BMP180;55725;42.758;26.702;2022-12-17T05:32:01;99190.00;;;10.80
68743;BMP180;55725;42.758;26.702;2022-12-17T05:34:00;99192.00;;;10.80
68743;BMP180;55725;42.758;26.702;2022-12-17T05:35:59;99193.00;;;10.60
68743;BMP180;55725;42.758;26.702;2022-12-17T05:38:05;99205.00;;;10.60
68743;BMP180;55725;42.758;26.702;2022-12-17T05:40:04;99199.00;;;10.70
68743;BMP180;55725;42.758;26.702;2022-12-17T05:42:03;99209.00;;;10.60
68743;BMP180;55725;42.758;26.702;2022-12-17T05:44:02;99204.00;;;10.50
68743;BMP180;55725;42.758;26.702;2022-12-17T05:46:01;99206.00;;;10.60
68743;BMP180;55725;42.758;26.702;2022-12-17T05:47:59;99201.00;;;10.60
68743;BMP180;55725;42.758;26.702;2022-12-17T05:49:59;99204.00;;;10.50
68743;BMP180;55725;42.758;26.702;2022-12-17T05:51:57;99208.00;;;10.60
68743;BMP180;55725;42.758;26.702;2022-12-17T05:53:56;99210.00;;;10.80
68743;BMP180;55725;42.758;26.702;2022-12-17T05:55:55;99201.00;;;10.70
68743;BMP180;55725;42.758;26.702;2022-12-17T05:58:04;99208.00;;;10.50
68743;BMP180;55725;42.758;26.702;2022-12-17T06:00:03;99208.00;;;10.70
68743;BMP180;55725;42.758;26.702;2022-12-17T06:02:03;99208.00;;;10.70
68743;BMP180;55725;42.758;26.702;2022-12-17T06:04:02;99216.00;;;10.80
68743;BMP180;55725;42.758;26.702;2022-12-17T06:06:00;99209.00;;;11.20
68743;BMP180;55725;42.758;26.702;2022-12-17T06:08:06;99213.00;;;11.30
68743;BMP180;55725;42.758;26.702;2022-12-17T06:10:06;99212.00;;;11.30
68743;BMP180;55725;42.758;26.702;2022-12-17T06:12:05;99220.00;;;11.30
68743;BMP180;55725;42.758;26.702;2022-12-17T06:14:04;99212.00;;;11.50
68743;BMP180;55725;42.758;26.702;2022-12-17T06:16:03;99203.00;;;11.60
68743;BMP180;55725;42.758;26.702;2022-12-17T06:18:01;99217.00;;;11.70
68743;BMP180;55725;42.758;26.702;2022-12-17T06:20:00;99211.00;;;11.70
68743;BMP180;55725;42.758;26.702;2022-12-17T06:21:59;99211.00;;;12.00
68743;BMP180;55725;42.758;26.702;2022-12-17T06:23:58;99207.00;;;12.10
68743;BMP180;55725;42.758;26.702;2022-12-17T06:25:57;99196.00;;;12.10
68743;BMP180;55725;42.758;26.702;2022-12-17T06:27:57;99192.00;;;12.20
68743;BMP180;55725;42.758;26.702;2022-12-17T06:29:57;99192.00;;;12.20
68743;BMP180;55725;42.758;26.702;2022-12-17T06:31:56;99193.00;;;12.30
68743;BMP180;55725;42.758;26.702;2022-12-17T06:33:56;99187.00;;;12.30
68743;BMP180;55725;42.758;26.702;2022-12-17T06:35:56;99196.00;;;12.40
68743;BMP180;55725;42.758;26.702;2022-12-17T06:38:05;99193.00;;;12.40
68743;BMP180;55725;42.758;26.702;2022-12-17T06:40:04;99198.00;;;12.40
68743;BMP180;55725;42.758;26.702;2022-12-17T06:42:03;99180.00;;;12.30
68743;BMP180;55725;42.758;26.702;2022-12-17T06:44:02;99192.00;;;12.30
68743;BMP180;55725;42.758;26.702;2022-12-17T06:46:01;99191.00;;;12.40
68743;BMP180;55725;42.758;26.702;2022-12-17T06:48:01;99197.00;;;12.40
68743;BMP180;55725;42.758;26.702;2022-12-17T06:50:00;99195.00;;;12.50
68743;BMP180;55725;42.758;26.702;2022-12-17T06:51:59;99187.00;;;12.50
68743;BMP180;55725;42.758;26.702;2022-12-17T06:53:57;99199.00;;;12.60
68743;BMP180;55725;42.758;26.702;2022-12-17T06:55:57;99199.00;;;12.70
68743;BMP180;55725;42.758;26.702;2022-12-17T06:57:57;99198.00;;;12.80
68743;BMP180;55725;42.758;26.702;2022-12-17T06:59:55;99200.00;;;12.80
68743;BMP180;55725;42.758;26.702;2022-12-17T07:01:54;99210.00;;;12.90
68743;BMP180;55725;42.758;26.702;2022-12-17T07:03:53;99207.00;;;13.00
68743;BMP180;55725;42.758;26.702;2022-12-17T07:05:52;99211.00;;;13.00
68743;BMP180;55725;42.758;26.702;2022-12-17T07:07:55;99218.00;;;13.00
68743;BMP180;55725;42.758;26.702;2022-12-17T07:09:54;99223.00;;;13.10
68743;BMP180;55725;42.758;26.702;2022-12-17T07:11:53;99215.00;;;13.10
68743;BMP180;55725;42.758;26.702;2022-12-17T07:13:52;99220.00;;;13.20
68743;BMP180;55725;42.758;26.702;2022-12-17T07:15:51;99210.00;;;13.30
68743;BMP180;55725;42.758;26.702;2022-12-17T07:17:57;99213.00;;;13.40
68743;BMP180;55725;42.758;26.702;2022-12-17T07:19:56;99214.00;;;13.30
68743;BMP180;55725;42.758;26.702;2022-12-17T07:21:55;99218.00;;;13.40
68743;BMP180;55725;42.758;26.702;2022-12-17T07:23:54;99212.00;;;13.50
68743;BMP180;55725;42.758;26.702;2022-12-17T07:25:53;99205.00;;;13.60
68743;BMP180;55725;42.758;26.702;2022-12-17T07:27:54;99212.00;;;13.70
68743;BMP180;55725;42.758;26.702;2022-12-17T07:29:53;99219.00;;;13.70
68743;BMP180;55725;42.758;26.702;2022-12-17T07:31:52;99216.00;;;13.70
68743;BMP180;55725;42.758;26.702;2022-12-17T07:33:51;99207.00;;;13.70
68743;BMP180;55725;42.758;26.702;2022-12-17T07:35:53;99222.00;;;13.70
68743;BMP180;55725;42.758;26.702;2022-12-17T07:37:59;99215.00;;;13.80
68743;BMP180;55725;42.758;26.702;2022-12-17T07:39:57;99207.00;;;13.90
68743;BMP180;55725;42.758;26.702;2022-12-17T07:41:56;99216.00;;;13.90
68743;BMP180;55725;42.758;26.702;2022-12-17T07:43:55;99208.00;;;13.90
68743;BMP180;55725;42.758;26.702;2022-12-17T07:45:54;99221.00;;;13.90
68743;BMP180;55725;42.758;26.702;2022-12-17T07:47:53;99214.00;;;13.90
68743;BMP180;55725;42.758;26.702;2022-12-17T07:49:52;99230.00;;;13.80
68743;BMP180;55725;42.758;26.702;2022-12-17T07:51:51;99215.00;;;13.80
68743;BMP180;55725;42.758;26.702;2022-12-17T07:53:50;99220.00;;;13.80
68743;BMP180;55725;42.758;26.702;2022-12-17T07:55:50;99211.00;;;13.90
68743;BMP180;55725;42.758;26.702;2022-12-17T07:57:56;99209.00;;;13.90
68743;BMP180;55725;42.758;26.702;2022-12-17T07:59:55;99221.00;;;13.90
68743;BMP180;55725;42.758;26.702;2022-12-17T08:01:54;99225.00;;;13.70
68743;BMP180;55725;42.758;26.702;2022-12-17T08:03:53;99217.00;;;13.80
68743;BMP180;55725;42.758;26.702;2022-12-17T08:05:55;99219.00;;;13.80
68743;BMP180;55725;42.758;26.702;2022-12-17T08:07:54;99227.00;;;13.70
68743;BMP180;55725;42.758;26.702;2022-12-17T08:09:53;99215.00;;;13.80
68743;BMP180;55725;42.758;26.702;2022-12-17T08:11:52;99203.00;;;13.80
68743;BMP180;55725;42.758;26.702;2022-12-17T08:13:51;99184.00;;;13.90
68743;BMP180;55725;42.758;26.702;2022-12-17T08:15:53;99192.00;;;14.00
68743;BMP180;55725;42.758;26.702;2022-12-17T08:17:57;99209.00;;;13.90
68743;BMP180;55725;42.758;26.702;2022-12-17T08:19:56;99239.00;;;13.80
68743;BMP180;55725;42.758;26.702;2022-12-17T08:21:55;99239.00;;;13.70
68743;BMP180;55725;42.758;26.702;2022-12-17T08:23:54;99237.00;;;13.70
68743;BMP180;55725;42.758;26.702;2022-12-17T08:25:53;99262.00;;;13.70
68743;BMP180;55725;42.758;26.702;2022-12-17T08:27:56;99236.00;;;13.70
68743;BMP180;55725;42.758;26.702;2022-12-17T08:29:55;99244.00;;;13.70
68743;BMP180;55725;42.758;26.702;2022-12-17T08:31:53;99234.00;;;13.90
68743;BMP180;55725;42.758;26.702;2022-12-17T08:33:52;99229.00;;;14.00
68743;BMP180;55725;42.758;26.702;2022-12-17T08:35:52;99232.00;;;14.10
68743;BMP180;55725;42.758;26.702;2022-12-17T08:37:51;99226.00;;;14.00
68743;BMP180;55725;42.758;26.702;2022-12-17T08:39:50;99232.00;;;13.90
68743;BMP180;55725;42.758;26.702;2022-12-17T08:41:49;99233.00;;;13.90
68743;BMP180;55725;42.758;26.702;2022-12-17T08:43:48;99231.00;;;13.90
68743;BMP180;55725;42.758;26.702;2022-12-17T08:45:47;99237.00;;;14.00
68743;BMP180;55725;42.758;26.702;2022-12-17T08:47:47;99234.00;;;14.00
68743;BMP180;55725;42.758;26.702;2022-12-17T08:49:46;99232.00;;;14.00
68743;BMP180;55725;42.758;26.702;2022-12-17T08:51:45;99219.00;;;14.00
68743;BMP180;55725;42.758;26.702;2022-12-17T08:53:44;99200.00;;;14.10
68743;BMP180;55725;42.758;26.702;2022-12-17T08:55:43;99186.00;;;14.40
68743;BMP180;55725;42.758;26.702;2022-12-17T08:57:44;99185.00;;;14.50
68743;BMP180;55725;42.758;26.702;2022-12-17T08:59:49;99214.00;;;14.50
68743;BMP180;55725;42.758;26.702;2022-12-17T09:01:48;99214.00;;;14.30
68743;BMP180;55725;42.758;26.702;2022-12-17T09:03:47;99222.00;;;14.30
68743;BMP180;55725;42.758;26.702;2022-12-17T09:05:46;99238.00;;;14.30
68743;BMP180;55725;42.758;26.702;2022-12-17T09:07:45;99233.00;;;14.30
68743;BMP180;55725;42.758;26.702;2022-12-17T09:09:44;99223.00;;;14.30
68743;BMP180;55725;42.758;26.702;2022-12-17T09:11:43;99221.00;;;14.40
68743;BMP180;55725;42.758;26.702;2022-12-17T09:13:42;99221.00;;;14.50
68743;BMP180;55725;42.758;26.702;2022-12-17T09:15:41;99212.00;;;14.50
68743;BMP180;55725;42.758;26.702;2022-12-17T09:17:40;99210.00;;;14.40
68743;BMP180;55725;42.758;26.702;2022-12-17T09:19:39;99212.00;;;14.50
68743;BMP180;55725;42.758;26.702;2022-12-17T09:21:38;99208.00;;;14.60
68743;BMP180;55725;42.758;26.702;2022-12-17T09:23:37;99200.00;;;14.70
68743;BMP180;55725;42.758;26.702;2022-12-17T09:25:36;99184.00;;;14.70
68743;BMP180;55725;42.758;26.702;2022-12-17T09:27:35;99193.00;;;14.70
68743;BMP180;55725;42.758;26.702;2022-12-17T09:29:34;99212.00;;;14.70
68743;BMP180;55725;42.758;26.702;2022-12-17T09:31:33;99218.00;;;14.70
68743;BMP180;55725;42.758;26.702;2022-12-17T09:33:32;99208.00;;;14.70
68743;BMP180;55725;42.758;26.702;2022-12-17T09:35:31;99180.00;;;14.80
68743;BMP180;55725;42.758;26.702;2022-12-17T09:37:30;99181.00;;;15.10
68743;BMP180;55725;42.758;26.702;2022-12-17T09:39:29;99177.00;;;15.20
68743;BMP180;55725;42.758;26.702;2022-12-17T09:41:29;99195.00;;;15.00
68743;BMP180;55725;42.758;26.702;2022-12-17T09:43:43;99193.00;;;15.00
68743;BMP180;55725;42.758;26.702;2022-12-17T09:45:49;99196.00;;;15.00
68743;BMP180;55725;42.758;26.702;2022-12-17T09:50:00;99162.00;;;15.40
68743;BMP180;55725;42.758;26.702;2022-12-17T09:52:02;99179.00;;;15.50
68743;BMP180;55725;42.758;26.702;2022-12-17T09:54:01;99176.00;;;15.50
68743;BMP180;55725;42.758;26.702;2022-12-17T09:56:00;99175.00;;;15.50
68743;BMP180;55725;42.758;26.702;2022-12-17T09:58:00;99185.00;;;15.40
68743;BMP180;55725;42.758;26.702;2022-12-17T09:59:59;99200.00;;;15.30
68743;BMP180;55725;42.758;26.702;2022-12-17T10:01:57;99206.00;;;15.30
68743;BMP180;55725;42.758;26.702;2022-12-17T10:03:57;99229.00;;;15.30
68743;BMP180;55725;42.758;26.702;2022-12-17T10:05:56;99232.00;;;15.30
68743;BMP180;55725;42.758;26.702;2022-12-17T10:07:55;99230.00;;;15.30
68743;BMP180;55725;42.758;26.702;2022-12-17T10:09:55;99230.00;;;15.30
68743;BMP180;55725;42.758;26.702;2022-12-17T10:11:56;99222.00;;;15.30
68743;BMP180;55725;42.758;26.702;2022-12-17T10:13:56;99223.00;;;15.30
68743;BMP180;55725;42.758;26.702;2022-12-17T10:15:55;99210.00;;;15.30
68743;BMP180;55725;42.758;26.702;2022-12-17T10:17:54;99200.00;;;15.30
68743;BMP180;55725;42.758;26.702;2022-12-17T10:19:53;99193.00;;;15.20
68743;BMP180;55725;42.758;26.702;2022-12-17T10:21:53;99192.00;;;15.30
68743;BMP180;55725;42.758;26.702;2022-12-17T10:24:03;99190.00;;;15.30
68743;BMP180;55725;42.758;26.702;2022-12-17T10:26:02;99182.00;;;15.30
68743;BMP180;55725;42.758;26.702;2022-12-17T10:28:04;99173.00;;;15.40
68743;BMP180;55725;42.758;26.702;2022-12-17T10:30:03;99186.00;;;15.40
68743;BMP180;55725;42.758;26.702;2022-12-17T10:32:09;99191.00;;;15.40
68743;BMP180;55725;42.758;26.702;2022-12-17T10:34:16;99175.00;;;15.40
68743;BMP180;55725;42.758;26.702;2022-12-17T10:36:32;99178.00;;;15.60
68743;BMP180;55725;42.758;26.702;2022-12-17T10:38:31;99186.00;;;15.60
68743;BMP180;55725;42.758;26.702;2022-12-17T10:40:30;99189.00;;;15.60
68743;BMP180;55725;42.758;26.702;2022-12-17T10:42:36;99186.00;;;15.60
68743;BMP180;55725;42.758;26.702;2022-12-17T10:44:36;99187.00;;;15.50
68743;BMP180;55725;42.758;26.702;2022-12-17T10:46:35;99181.00;;;15.60
68743;BMP180;55725;42.758;26.702;2022-12-17T10:48:34;99182.00;;;15.60
68743;BMP180;55725;42.758;26.702;2022-12-17T10:50:33;99195.00;;;15.70
68743;BMP180;55725;42.758;26.702;2022-12-17T10:52:38;99207.00;;;15.70
68743;BMP180;55725;42.758;26.702;2022-12-17T10:54:37;99185.00;;;15.60
68743;BMP180;55725;42.758;26.702;2022-12-17T10:56:36;99190.00;;;15.60
68743;BMP180;55725;42.758;26.702;2022-12-17T10:58:35;99181.00;;;15.50
68743;BMP180;55725;42.758;26.702;2022-12-17T11:00:35;99179.00;;;15.60
68743;BMP180;55725;42.758;26.702;2022-12-17T11:02:35;99171.00;;;15.50
68743;BMP180;55725;42.758;26.702;2022-12-17T11:04:37;99182.00;;;15.50
68743;BMP180;55725;42.758;26.702;2022-12-17T11:06:39;99179.00;;;15.60
68743;BMP180;55725;42.758;26.702;2022-12-17T11:08:40;99185.00;;;15.60
68743;BMP180;55725;42.758;26.702;2022-12-17T11:10:39;99186.00;;;15.60
68743;BMP180;55725;42.758;26.702;2022-12-17T11:14:46;99183.00;;;15.60
68743;BMP180;55725;42.758;26.702;2022-12-17T11:16:54;99188.00;;;15.60
68743;BMP180;55725;42.758;26.702;2022-12-17T11:21:12;99174.00;;;15.60
68743;BMP180;55725;42.758;26.702;2022-12-17T11:23:14;99175.00;;;15.60
68743;BMP180;55725;42.758;26.702;2022-12-17T11:27:47;99162.00;;;15.60
68743;BMP180;55725;42.758;26.702;2022-12-17T11:29:48;99160.00;;;15.60
68743;BMP180;55725;42.758;26.702;2022-12-17T11:31:55;99147.00;;;15.70
68743;BMP180;55725;42.758;26.702;2022-12-17T11:34:43;99147.00;;;15.70
68743;BMP180;55725;42.758;26.702;2022-12-17T11:36:21;99145.00;;;15.90
68743;BMP180;55725;42.758;26.702;2022-12-17T11:42:26;99172.00;;;15.80